createdAt,value
2022-10-23T00:01:23.645Z,45.84
2022-10-23T00:03:55.378Z,46.07
2022-10-23T00:06:24.485Z,45.96
2022-10-23T00:08:52.943Z,46.07
2022-10-23T00:11:24.823Z,45.79
2022-10-23T00:13:56.278Z,45.83
2022-10-23T00:16:24.835Z,45.84
2022-10-23T00:18:54.701Z,45.76
2022-10-23T00:21:23.309Z,45.56
2022-10-23T00:23:51.684Z,45.40
2022-10-23T00:26:20.317Z,45.72
2022-10-23T00:28:50.656Z,45.54
2022-10-23T00:31:19.717Z,45.40
2022-10-23T00:33:48.743Z,45.45
2022-10-23T00:36:19.235Z,45.64
2022-10-23T00:38:48.165Z,45.35
2022-10-23T00:41:19.432Z,45.48
2022-10-23T00:44:31.919Z,45.54
2022-10-23T00:47:01.263Z,45.71
2022-10-23T00:49:30.389Z,45.57
2022-10-23T00:52:04.604Z,45.35
2022-10-23T00:54:37.306Z,45.37
2022-10-23T00:57:08.942Z,45.43
2022-10-23T00:59:37.443Z,45.49
2022-10-23T01:02:06.741Z,45.45
2022-10-23T01:04:36.211Z,45.69
2022-10-23T01:07:14.655Z,45.71
2022-10-23T01:09:51.150Z,45.72
2022-10-23T01:12:27.760Z,45.85
2022-10-23T01:15:02.380Z,45.75
2022-10-23T01:17:40.846Z,45.71
2022-10-23T01:20:25.710Z,45.83
2022-10-23T01:23:13.588Z,45.86
2022-10-23T01:26:15.201Z,45.93
2022-10-23T01:28:50.915Z,45.76
2022-10-23T01:31:27.105Z,45.82
2022-10-23T01:34:01.294Z,45.84
2022-10-23T01:36:33.189Z,45.63
2022-10-23T01:39:08.321Z,45.84
2022-10-23T01:41:45.015Z,45.87
2022-10-23T01:44:24.983Z,45.70
2022-10-23T01:46:55.166Z,45.64
2022-10-23T01:49:24.991Z,45.71
2022-10-23T01:52:02.002Z,45.42
2022-10-23T01:54:35.262Z,45.26
2022-10-23T01:57:04.683Z,45.36
2022-10-23T01:59:40.156Z,45.36
2022-10-23T02:02:12.164Z,45.39
2022-10-23T02:04:50.844Z,45.61
2022-10-23T02:07:19.309Z,45.27
2022-10-23T02:09:47.984Z,45.47
2022-10-23T02:15:29.832Z,45.29
2022-10-23T02:18:09.816Z,45.32
2022-10-23T02:20:41.782Z,45.38
2022-10-23T02:23:20.795Z,45.53
2022-10-23T02:25:54.680Z,45.45
2022-10-23T02:28:28.577Z,45.49
2022-10-23T02:31:04.520Z,45.54
2022-10-23T02:33:35.250Z,45.64
2022-10-23T02:36:03.934Z,45.74
2022-10-23T02:38:35.915Z,45.97
2022-10-23T02:41:18.404Z,45.68
2022-10-23T02:43:55.845Z,45.76
2022-10-23T02:46:35.309Z,45.69
2022-10-23T02:49:13.609Z,45.74
2022-10-23T02:51:55.727Z,45.42
2022-10-23T02:54:40.914Z,45.35
2022-10-23T02:57:17.498Z,45.47
2022-10-23T02:59:52.302Z,45.54
2022-10-23T03:02:27.378Z,45.50
2022-10-23T03:04:57.789Z,45.19
2022-10-23T03:07:28.106Z,45.41
2022-10-23T03:10:07.149Z,45.29
2022-10-23T03:12:35.772Z,45.38
2022-10-23T03:15:06.722Z,45.34
2022-10-23T03:17:36.570Z,45.35
2022-10-23T03:20:05.694Z,45.25
2022-10-23T03:22:33.898Z,45.51
2022-10-23T03:25:02.797Z,45.20
2022-10-23T03:27:33.424Z,45.20
2022-10-23T03:30:07.413Z,45.44
2022-10-23T03:32:40.156Z,45.27
2022-10-23T03:35:09.533Z,45.39
2022-10-23T03:37:37.961Z,45.52
2022-10-23T03:40:07.610Z,45.42
2022-10-23T03:42:36.752Z,45.57
2022-10-23T03:45:05.790Z,45.55
2022-10-23T03:47:35.547Z,45.73
2022-10-23T03:50:06.407Z,45.61
2022-10-23T03:52:35.945Z,45.63
2022-10-23T03:55:05.085Z,45.56
2022-10-23T03:57:33.922Z,45.32
2022-10-23T04:00:02.384Z,45.28
2022-10-23T04:02:34.334Z,45.42
2022-10-23T04:05:03.140Z,45.43
2022-10-23T04:07:32.991Z,45.51
2022-10-23T04:10:04.009Z,45.40
2022-10-23T04:12:32.534Z,45.27
2022-10-23T04:15:00.960Z,45.35
2022-10-23T04:17:29.445Z,45.19
2022-10-23T04:19:58.060Z,45.21
2022-10-23T04:22:28.378Z,45.19
2022-10-23T04:24:58.641Z,45.00
2022-10-23T04:27:27.154Z,45.15
2022-10-23T04:29:59.093Z,45.07
2022-10-23T04:32:28.597Z,44.98
2022-10-23T04:34:57.004Z,44.99
2022-10-23T04:37:25.545Z,44.99
2022-10-23T04:39:53.999Z,44.94
2022-10-23T04:42:24.234Z,45.18
2022-10-23T04:44:52.893Z,45.03
2022-10-23T04:47:21.230Z,45.17
2022-10-23T04:49:58.167Z,45.14
2022-10-23T04:52:45.272Z,45.15
2022-10-23T04:55:32.257Z,45.07
2022-10-23T04:58:13.828Z,45.29
2022-10-23T05:00:43.033Z,45.31
2022-10-23T05:03:11.514Z,45.51
2022-10-23T05:05:43.747Z,45.34
2022-10-23T05:08:50.399Z,45.59
2022-10-23T05:11:41.779Z,45.46
2022-10-23T05:14:13.169Z,45.69
2022-10-23T05:16:46.963Z,45.38
2022-10-23T05:19:23.377Z,45.55
2022-10-23T05:21:56.101Z,45.53
2022-10-23T05:24:31.706Z,45.81
2022-10-23T05:27:03.239Z,45.96
2022-10-23T05:29:35.050Z,45.94
2022-10-23T05:32:06.634Z,45.77
2022-10-23T05:34:38.449Z,45.94
2022-10-23T05:37:10.440Z,46.26
2022-10-23T05:39:41.240Z,46.35
2022-10-23T05:42:14.118Z,46.03
2022-10-23T05:44:45.159Z,46.07
2022-10-23T05:47:39.623Z,46.21
2022-10-23T05:50:17.842Z,46.45
2022-10-23T05:53:18.870Z,46.11
2022-10-23T05:56:06.887Z,46.26
2022-10-23T05:59:11.362Z,46.54
2022-10-23T06:01:51.378Z,46.42
2022-10-23T06:04:37.237Z,46.49
2022-10-23T06:07:29.181Z,46.69
2022-10-23T06:10:01.495Z,46.63
2022-10-23T06:12:30.750Z,46.64
2022-10-23T06:14:59.518Z,46.63
2022-10-23T06:17:43.192Z,47.21
2022-10-23T06:20:12.753Z,46.86
2022-10-23T06:22:42.871Z,47.19
2022-10-23T06:25:25.877Z,47.73
2022-10-23T06:27:57.538Z,48.02
2022-10-23T06:30:26.382Z,47.34
2022-10-23T06:32:56.243Z,47.28
2022-10-23T06:35:24.976Z,47.29
2022-10-23T06:37:53.665Z,47.48
2022-10-23T06:40:34.902Z,47.69
2022-10-23T06:43:08.617Z,47.97
2022-10-23T06:46:07.167Z,48.25
2022-10-23T06:49:16.260Z,47.97
2022-10-23T06:51:50.006Z,48.01
2022-10-23T06:54:22.667Z,48.02
2022-10-23T06:57:17.294Z,48.33
2022-10-23T06:59:48.130Z,48.31
2022-10-23T07:02:17.690Z,48.10
2022-10-23T07:04:47.921Z,47.94
2022-10-23T07:07:20.035Z,47.95
2022-10-23T07:09:50.599Z,47.65
2022-10-23T07:12:19.072Z,47.67
2022-10-23T07:14:52.821Z,47.75
2022-10-23T07:17:21.320Z,48.05
2022-10-23T07:19:51.370Z,47.78
2022-10-23T07:22:19.716Z,47.90
2022-10-23T07:25:07.754Z,47.96
2022-10-23T07:27:40.503Z,47.92
2022-10-23T07:30:12.482Z,48.00
2022-10-23T07:32:49.723Z,47.96
2022-10-23T07:35:39.274Z,48.71
2022-10-23T07:38:19.647Z,48.86
2022-10-23T07:40:53.962Z,49.35
2022-10-23T07:43:22.754Z,49.21
2022-10-23T07:45:53.414Z,49.64
2022-10-23T07:48:34.370Z,49.89
2022-10-23T07:51:10.693Z,49.68
